createdAt,value
2018-11-25T00:02:15.375Z,5.29
2018-11-25T00:04:43.122Z,5.24
2018-11-25T00:07:10.866Z,5.39
2018-11-25T00:09:38.639Z,5.25
2018-11-25T00:12:07.039Z,5.05
2018-11-25T00:14:34.754Z,5.22
2018-11-25T00:17:02.472Z,5.25
2018-11-25T00:19:30.193Z,5.23
2018-11-25T00:21:57.963Z,5.33
2018-11-25T00:24:25.679Z,5.26
2018-11-25T00:26:53.387Z,5.46
2018-11-25T00:29:21.111Z,5.32
2018-11-25T00:31:48.822Z,5.18
2018-11-25T00:34:16.559Z,5.15
2018-11-25T00:36:44.266Z,5.23
2018-11-25T00:39:11.979Z,5.34
2018-11-25T00:41:39.703Z,5.34
2018-11-25T00:44:07.469Z,5.31
2018-11-25T00:46:35.198Z,5.30
2018-11-25T00:49:02.943Z,5.33
2018-11-25T00:51:30.724Z,5.22
2018-11-25T00:53:58.468Z,5.29
2018-11-25T00:56:26.191Z,5.24
2018-11-25T00:58:53.957Z,4.98
2018-11-25T01:01:21.659Z,5.15
2018-11-25T01:03:49.426Z,5.08
2018-11-25T01:06:17.171Z,4.98
2018-11-25T01:08:44.891Z,5.19
2018-11-25T01:11:12.611Z,5.37
2018-11-25T01:13:40.319Z,5.14
2018-11-25T01:16:08.051Z,4.88
2018-11-25T01:18:35.796Z,5.24
2018-11-25T01:21:03.523Z,5.26
2018-11-25T01:23:31.244Z,5.05
2018-11-25T01:25:58.997Z,4.90
2018-11-25T01:28:26.720Z,5.10
2018-11-25T01:30:54.447Z,5.30
2018-11-25T01:33:22.210Z,5.44
2018-11-25T01:35:49.959Z,5.44
2018-11-25T01:38:17.675Z,5.42
2018-11-25T01:40:45.391Z,5.55
2018-11-25T01:43:13.096Z,5.50
2018-11-25T01:45:41.003Z,5.42
2018-11-25T01:48:08.731Z,5.45
2018-11-25T01:50:36.455Z,5.08
2018-11-25T01:53:04.227Z,5.34
2018-11-25T01:55:32.015Z,5.33
2018-11-25T01:57:59.749Z,5.35
2018-11-25T02:00:27.521Z,5.48
2018-11-25T02:02:55.239Z,5.71
2018-11-25T02:05:22.999Z,5.65
2018-11-25T02:07:50.748Z,5.45
2018-11-25T02:10:19.118Z,5.28
2018-11-25T02:12:46.979Z,5.31
2018-11-25T02:15:15.590Z,5.08
2018-11-25T02:17:43.384Z,5.30
2018-11-25T02:20:20.412Z,5.46
2018-11-25T02:22:48.278Z,5.06
2018-11-25T02:25:16.139Z,5.14
2018-11-25T02:27:43.854Z,5.33
2018-11-25T02:30:15.476Z,5.46
2018-11-25T02:32:43.261Z,5.46
2018-11-25T02:35:11.849Z,5.51
2018-11-25T02:37:39.588Z,5.58
2018-11-25T02:40:09.591Z,5.46
2018-11-25T02:42:37.333Z,5.28
2018-11-25T02:45:07.272Z,5.53
2018-11-25T02:47:35.016Z,5.58
2018-11-25T02:50:02.773Z,5.62
2018-11-25T02:52:30.482Z,5.68
2018-11-25T02:54:58.208Z,5.78
2018-11-25T02:57:25.922Z,5.82
2018-11-25T02:59:53.652Z,5.58
2018-11-25T03:02:21.389Z,5.61
2018-11-25T03:04:49.115Z,5.56
2018-11-25T03:07:17.135Z,5.39
2018-11-25T03:09:44.872Z,5.22
2018-11-25T03:12:12.591Z,5.14
2018-11-25T03:14:40.334Z,5.45
2018-11-25T03:17:08.065Z,5.63
2018-11-25T03:19:35.805Z,5.50
2018-11-25T03:22:03.595Z,5.41
2018-11-25T03:24:31.352Z,5.55
2018-11-25T03:26:59.075Z,5.59
2018-11-25T03:29:26.797Z,5.56
2018-11-25T03:31:54.530Z,5.46
2018-11-25T03:34:22.259Z,5.50
2018-11-25T03:36:49.975Z,5.41
2018-11-25T03:39:17.691Z,5.62
2018-11-25T03:41:45.408Z,5.61
2018-11-25T03:44:13.119Z,5.35
2018-11-25T03:46:40.878Z,5.49
2018-11-25T03:49:08.604Z,5.44
2018-11-25T03:51:36.321Z,5.60
2018-11-25T03:54:04.187Z,5.46
2018-11-25T03:56:31.926Z,5.21
2018-11-25T03:58:59.636Z,5.21
2018-11-25T04:01:27.354Z,5.21
2018-11-25T04:03:55.075Z,5.23
2018-11-25T04:06:22.813Z,5.21
2018-11-25T04:08:50.534Z,5.47
2018-11-25T04:11:18.262Z,5.62
2018-11-25T04:13:45.980Z,5.52
2018-11-25T04:16:13.835Z,5.54
2018-11-25T04:18:41.567Z,5.45
2018-11-25T04:21:14.324Z,5.50
2018-11-25T04:23:42.063Z,5.51
2018-11-25T04:26:09.856Z,5.24
2018-11-25T04:28:37.631Z,5.40
2018-11-25T04:31:05.576Z,5.42
2018-11-25T04:33:33.279Z,5.30
2018-11-25T04:36:01.015Z,5.31
2018-11-25T04:38:28.749Z,5.23
2018-11-25T04:40:56.480Z,5.20
2018-11-25T04:43:24.192Z,5.28
2018-11-25T04:45:51.910Z,5.42
2018-11-25T04:48:19.663Z,5.50
2018-11-25T04:50:47.681Z,5.45
2018-11-25T04:53:15.415Z,5.51
2018-11-25T04:55:43.135Z,5.51
2018-11-25T04:58:10.862Z,5.53
2018-11-25T05:00:38.586Z,5.35
2018-11-25T05:03:06.374Z,5.30
2018-11-25T05:05:34.088Z,5.26
2018-11-25T05:08:01.823Z,5.31
2018-11-25T05:10:29.591Z,5.30
2018-11-25T05:12:57.365Z,5.27
2018-11-25T05:15:25.080Z,5.30
2018-11-25T05:17:52.819Z,5.42
2018-11-25T05:20:20.854Z,5.31
2018-11-25T05:22:48.588Z,5.30
2018-11-25T05:25:17.373Z,5.21
2018-11-25T05:27:45.111Z,5.18
2018-11-25T05:30:14.866Z,5.11
2018-11-25T05:32:42.634Z,5.38
2018-11-25T05:35:13.192Z,5.43
2018-11-25T05:37:40.978Z,5.36
2018-11-25T05:40:11.539Z,5.36
2018-11-25T05:42:39.317Z,5.33
2018-11-25T05:45:09.636Z,5.45
2018-11-25T05:47:37.355Z,5.46
2018-11-25T05:50:06.323Z,5.48
2018-11-25T05:52:34.063Z,5.35
2018-11-25T05:55:01.775Z,5.22
2018-11-25T05:57:29.487Z,5.37
2018-11-25T05:59:57.216Z,5.41
2018-11-25T06:02:24.947Z,5.19
2018-11-25T06:04:52.669Z,5.34
2018-11-25T06:07:20.407Z,5.50
2018-11-25T06:09:48.135Z,5.62
2018-11-25T06:12:15.847Z,5.49
2018-11-25T06:14:43.571Z,5.48
2018-11-25T06:17:11.296Z,5.44
2018-11-25T06:19:39.014Z,5.61
2018-11-25T06:22:06.759Z,5.55
2018-11-25T06:24:34.488Z,5.23
2018-11-25T06:27:02.231Z,5.26
2018-11-25T06:29:29.964Z,5.44
2018-11-25T06:31:57.696Z,5.47
2018-11-25T06:34:25.424Z,5.46
2018-11-25T06:36:53.163Z,5.59
2018-11-25T06:39:20.909Z,5.47
2018-11-25T06:41:48.703Z,5.53
2018-11-25T06:44:16.435Z,5.45
2018-11-25T06:46:44.171Z,5.50
2018-11-25T06:49:11.909Z,5.43
2018-11-25T06:51:39.631Z,5.53
2018-11-25T06:54:07.361Z,5.64
2018-11-25T06:56:35.099Z,5.70
2018-11-25T06:59:02.856Z,5.66
2018-11-25T07:01:30.586Z,5.60
2018-11-25T07:03:58.316Z,5.81
2018-11-25T07:06:26.078Z,5.79
2018-11-25T07:08:53.837Z,5.80
2018-11-25T07:11:21.589Z,5.64
2018-11-25T07:13:49.310Z,5.75
2018-11-25T07:16:17.033Z,5.77
2018-11-25T07:18:44.780Z,5.60
2018-11-25T07:21:12.539Z,5.56
2018-11-25T07:23:40.291Z,5.74
2018-11-25T07:26:08.039Z,5.91
2018-11-25T07:28:35.768Z,6.02
2018-11-25T07:31:03.968Z,6.05
2018-11-25T07:33:31.707Z,6.11
2018-11-25T07:35:59.438Z,6.14
2018-11-25T07:38:27.176Z,6.21
2018-11-25T07:40:54.959Z,6.11
2018-11-25T07:43:22.751Z,6.23
2018-11-25T07:45:50.491Z,6.34
2018-11-25T07:48:18.243Z,6.10
2018-11-25T07:50:46.016Z,6.30
2018-11-25T07:53:13.784Z,6.46
2018-11-25T07:55:41.584Z,6.59
2018-11-25T07:58:09.308Z,6.93
2018-11-25T08:00:37.059Z,6.95
2018-11-25T08:03:05.095Z,7.07
2018-11-25T08:05:32.835Z,7.28
2018-11-25T08:08:00.595Z,7.19
2018-11-25T08:10:28.324Z,7.30
2018-11-25T08:12:56.562Z,7.18
2018-11-25T08:15:23.921Z,7.20
2018-11-25T08:17:51.631Z,7.29
2018-11-25T08:20:20.260Z,7.48
2018-11-25T08:22:48.067Z,7.41
2018-11-25T08:25:16.780Z,7.61
2018-11-25T08:27:44.544Z,7.77
2018-11-25T08:30:26.949Z,7.82
2018-11-25T08:32:54.688Z,7.95
2018-11-25T08:35:22.446Z,7.97
2018-11-25T08:37:50.220Z,8.02
2018-11-25T08:40:21.763Z,8.04
2018-11-25T08:42:49.532Z,8.03
2018-11-25T08:45:17.287Z,8.04
2018-11-25T08:47:45.052Z,7.99
2018-11-25T08:50:14.514Z,8.09
2018-11-25T08:52:43.030Z,8.19
2018-11-25T08:55:14.740Z,8.17
2018-11-25T08:57:42.469Z,8.26
2018-11-25T09:00:13.179Z,8.22
2018-11-25T09:02:40.909Z,8.18
2018-11-25T09:05:10.432Z,8.10
2018-11-25T09:07:38.240Z,8.03
2018-11-25T09:10:08.432Z,7.99
2018-11-25T09:12:36.159Z,8.04
2018-11-25T09:15:04.903Z,7.87
2018-11-25T09:17:32.630Z,7.88
2018-11-25T09:20:00.417Z,7.99
2018-11-25T09:22:28.180Z,8.00
2018-11-25T09:24:55.930Z,7.96
2018-11-25T09:27:23.645Z,8.06
2018-11-25T09:29:51.387Z,8.05
2018-11-25T09:32:23.129Z,8.04
2018-11-25T09:34:46.905Z,8.06
2018-11-25T09:37:14.640Z,8.13
2018-11-25T09:39:42.361Z,8.16
2018-11-25T09:42:10.114Z,8.18
2018-11-25T09:44:37.840Z,8.17
2018-11-25T09:47:05.880Z,8.21
2018-11-25T09:49:33.616Z,8.24
2018-11-25T09:52:01.342Z,8.27
2018-11-25T09:54:29.103Z,8.35
2018-11-25T09:56:56.828Z,8.50
2018-11-25T09:59:24.538Z,8.58
2018-11-25T10:01:52.316Z,8.59
2018-11-25T10:04:20.056Z,8.50
2018-11-25T10:06:47.804Z,8.58
2018-11-25T10:09:15.559Z,8.53
2018-11-25T10:11:43.297Z,8.56
2018-11-25T10:14:11.011Z,8.50
2018-11-25T10:16:38.715Z,8.49
2018-11-25T10:19:06.419Z,8.57
2018-11-25T10:21:34.155Z,8.63
2018-11-25T10:24:01.904Z,8.55
2018-11-25T10:26:29.629Z,8.62
2018-11-25T10:28:57.364Z,8.66
2018-11-25T10:31:25.093Z,8.67
2018-11-25T10:33:52.816Z,8.72
2018-11-25T10:36:20.599Z,8.78
2018-11-25T10:38:48.327Z,8.83
2018-11-25T10:41:16.049Z,8.85
2018-11-25T10:43:43.768Z,8.90
2018-11-25T10:46:11.539Z,8.87
2018-11-25T10:48:39.268Z,8.86
2018-11-25T10:51:07.030Z,8.81
2018-11-25T10:53:34.754Z,8.81
2018-11-25T10:56:02.477Z,8.75
2018-11-25T10:58:30.201Z,8.76
2018-11-25T11:01:03.520Z,8.82
2018-11-25T11:03:36.858Z,8.88
2018-11-25T11:06:10.247Z,8.94
2018-11-25T11:08:46.768Z,9.14
2018-11-25T11:11:14.503Z,9.23
2018-11-25T11:13:42.240Z,9.34
2018-11-25T11:16:09.957Z,9.50
2018-11-25T11:18:37.685Z,9.56
2018-11-25T11:21:05.708Z,9.62
2018-11-25T11:23:33.456Z,9.59
2018-11-25T11:26:06.662Z,9.60
2018-11-25T11:28:29.030Z,9.60
2018-11-25T11:30:56.757Z,9.58
2018-11-25T11:33:24.486Z,9.54
2018-11-25T11:35:52.220Z,9.59
2018-11-25T11:38:19.951Z,9.57
2018-11-25T11:40:47.686Z,9.58
2018-11-25T11:43:15.424Z,9.54
2018-11-25T11:45:43.199Z,9.58
2018-11-25T11:48:10.968Z,9.60
2018-11-25T11:50:38.687Z,9.61
2018-11-25T11:53:06.729Z,9.66
2018-11-25T11:55:34.461Z,9.66
2018-11-25T11:58:02.192Z,9.61
2018-11-25T12:00:30.859Z,9.62
2018-11-25T12:02:58.889Z,9.65
2018-11-25T12:05:26.615Z,9.63
2018-11-25T12:07:54.347Z,9.63
2018-11-25T12:10:22.077Z,9.61
2018-11-25T12:12:49.839Z,9.63
2018-11-25T12:15:32.136Z,9.64
2018-11-25T12:17:59.879Z,9.59
2018-11-25T12:20:28.760Z,9.62
2018-11-25T12:22:57.025Z,9.60
2018-11-25T12:25:24.779Z,9.62
2018-11-25T12:27:52.534Z,9.59
2018-11-25T12:30:20.292Z,9.60
2018-11-25T12:32:49.160Z,9.61
2018-11-25T12:35:17.376Z,9.60
2018-11-25T12:37:45.165Z,9.62
2018-11-25T12:40:18.019Z,9.65
2018-11-25T12:42:47.760Z,9.67
2018-11-25T12:45:16.468Z,9.70
2018-11-25T12:47:44.201Z,9.71
2018-11-25T12:50:14.024Z,9.74
2018-11-25T12:52:41.788Z,9.72
2018-11-25T12:55:11.883Z,9.75
2018-11-25T12:57:39.635Z,9.72
2018-11-25T13:00:12.895Z,9.78
2018-11-25T13:02:40.665Z,9.73
2018-11-25T13:05:08.459Z,9.71
2018-11-25T13:07:36.193Z,9.65
2018-11-25T13:10:04.126Z,9.66
2018-11-25T13:12:31.853Z,9.65
2018-11-25T13:14:59.664Z,9.69
2018-11-25T13:17:27.428Z,9.68
2018-11-25T13:19:55.175Z,9.68
2018-11-25T13:22:22.951Z,9.66
2018-11-25T13:24:50.695Z,9.65
2018-11-25T13:27:18.435Z,9.69
2018-11-25T13:29:46.165Z,9.68
2018-11-25T13:32:13.908Z,9.72
2018-11-25T13:34:41.682Z,9.70
2018-11-25T13:37:09.431Z,9.69
2018-11-25T13:39:37.144Z,9.68
2018-11-25T13:42:05.110Z,9.71
2018-11-25T13:44:41.675Z,9.71
2018-11-25T13:47:10.248Z,9.68
2018-11-25T13:49:38.000Z,9.65
2018-11-25T13:52:06.508Z,9.67
2018-11-25T13:54:34.464Z,9.70
2018-11-25T13:57:02.235Z,9.68
2018-11-25T13:59:29.959Z,9.66
2018-11-25T14:01:57.700Z,9.63
2018-11-25T14:04:25.440Z,9.61
2018-11-25T14:06:53.195Z,9.61
2018-11-25T14:09:21.555Z,9.60
2018-11-25T14:11:49.268Z,9.58
2018-11-25T14:14:17.000Z,9.54
2018-11-25T14:16:44.730Z,9.53
2018-11-25T14:19:12.455Z,9.54
2018-11-25T14:21:43.222Z,9.52
2018-11-25T14:24:10.936Z,9.50
2018-11-25T14:26:44.244Z,9.47
2018-11-25T14:29:11.973Z,9.48
2018-11-25T14:31:39.695Z,9.44
2018-11-25T14:34:07.423Z,9.47
2018-11-25T14:36:35.168Z,9.46
2018-11-25T14:39:03.140Z,9.41
2018-11-25T14:41:30.945Z,9.32
2018-11-25T14:43:58.679Z,9.26
2018-11-25T14:46:26.412Z,9.25
2018-11-25T14:48:54.147Z,9.19
2018-11-25T14:51:21.867Z,9.14
2018-11-25T14:53:49.585Z,9.15
2018-11-25T14:56:17.368Z,9.12
2018-11-25T14:58:45.106Z,9.02
2018-11-25T15:01:12.845Z,8.95
2018-11-25T15:03:40.583Z,8.85
2018-11-25T15:06:08.347Z,8.86
2018-11-25T15:08:36.091Z,8.78
2018-11-25T15:11:03.892Z,8.68
2018-11-25T15:13:31.720Z,8.68
2018-11-25T15:16:00.672Z,8.66
2018-11-25T15:18:28.406Z,8.70
2018-11-25T15:20:56.214Z,8.59
2018-11-25T15:23:23.923Z,8.54
2018-11-25T15:25:53.397Z,8.56
2018-11-25T15:28:21.132Z,8.52
2018-11-25T15:30:48.856Z,8.34
2018-11-25T15:33:16.626Z,8.35
2018-11-25T15:35:44.379Z,8.38
2018-11-25T15:38:12.141Z,8.39
2018-11-25T15:40:40.385Z,8.25
2018-11-25T15:43:09.168Z,8.24
2018-11-25T15:45:36.955Z,8.23
2018-11-25T15:48:22.895Z,8.10
2018-11-25T15:50:50.731Z,8.10
2018-11-25T15:53:18.508Z,8.13
2018-11-25T15:55:47.758Z,8.17
2018-11-25T15:58:15.519Z,8.03
2018-11-25T16:00:43.272Z,8.07
2018-11-25T16:03:11.740Z,8.14
2018-11-25T16:05:41.367Z,7.95
2018-11-25T16:08:09.090Z,7.86
2018-11-25T16:10:36.832Z,7.77
2018-11-25T16:13:05.057Z,7.92
2018-11-25T16:15:32.870Z,7.86
2018-11-25T16:18:00.610Z,7.94
2018-11-25T16:20:28.460Z,7.91
2018-11-25T16:23:01.494Z,8.02
2018-11-25T16:25:31.958Z,7.90
2018-11-25T16:28:13.278Z,7.72
2018-11-25T16:30:41.032Z,7.77
2018-11-25T16:33:08.761Z,7.82
2018-11-25T16:35:36.747Z,7.85
2018-11-25T16:38:06.516Z,7.98
2018-11-25T16:40:34.267Z,7.99
2018-11-25T16:43:02.037Z,7.82
2018-11-25T16:45:29.770Z,7.92
2018-11-25T16:47:57.500Z,7.99
2018-11-25T16:50:25.551Z,7.86
2018-11-25T16:52:53.049Z,7.84
2018-11-25T16:55:20.795Z,8.00
2018-11-25T16:57:48.494Z,7.99
2018-11-25T17:00:17.524Z,8.23
2018-11-25T17:02:45.303Z,8.16
2018-11-25T17:05:14.688Z,8.05
2018-11-25T17:07:43.655Z,7.98
2018-11-25T17:10:11.477Z,8.13
2018-11-25T17:12:39.225Z,8.01
2018-11-25T17:15:12.928Z,8.08
2018-11-25T17:17:40.703Z,8.17
2018-11-25T17:20:09.044Z,8.26
2018-11-25T17:22:36.802Z,8.26
2018-11-25T17:25:06.435Z,8.12
2018-11-25T17:27:34.253Z,8.14
2018-11-25T17:30:01.996Z,8.19
2018-11-25T17:32:30.696Z,8.23
2018-11-25T17:34:58.419Z,8.22
2018-11-25T17:37:26.180Z,8.20
2018-11-25T17:39:53.894Z,8.26
2018-11-25T17:42:21.627Z,8.13
2018-11-25T17:44:49.367Z,8.07
2018-11-25T17:47:17.091Z,8.19
2018-11-25T17:49:44.827Z,8.14
2018-11-25T17:52:12.626Z,8.22
2018-11-25T17:54:40.436Z,8.23
2018-11-25T17:57:08.947Z,8.25
2018-11-25T17:59:37.704Z,8.21
2018-11-25T18:02:06.047Z,8.13
2018-11-25T18:04:33.791Z,8.23
2018-11-25T18:07:01.543Z,8.15
2018-11-25T18:09:35.996Z,8.23
2018-11-25T18:12:04.320Z,8.15
2018-11-25T18:14:32.088Z,8.17
2018-11-25T18:16:59.819Z,8.15
2018-11-25T18:19:27.608Z,8.16
2018-11-25T18:22:00.821Z,8.21
2018-11-25T18:24:28.555Z,8.28
2018-11-25T18:26:56.339Z,8.30
2018-11-25T18:29:24.076Z,8.22
2018-11-25T18:31:51.813Z,8.29
2018-11-25T18:34:19.544Z,8.32
2018-11-25T18:36:47.260Z,8.31
2018-11-25T18:39:15.010Z,8.27
2018-11-25T18:41:44.096Z,8.33
2018-11-25T18:44:12.091Z,8.32
2018-11-25T18:46:46.528Z,8.30
2018-11-25T18:49:09.287Z,8.31
2018-11-25T18:51:37.024Z,8.31
2018-11-25T18:54:05.911Z,8.36
2018-11-25T18:56:33.648Z,8.30
2018-11-25T18:59:01.447Z,8.35
2018-11-25T19:01:36.423Z,8.36
2018-11-25T19:04:04.169Z,8.28
2018-11-25T19:06:31.908Z,8.31
2018-11-25T19:08:59.627Z,8.34
2018-11-25T19:11:27.360Z,8.33
2018-11-25T19:13:55.095Z,8.39
2018-11-25T19:16:22.906Z,8.37
2018-11-25T19:18:50.623Z,8.24
2018-11-25T19:21:18.356Z,8.24
2018-11-25T19:23:46.195Z,8.19
2018-11-25T19:26:13.953Z,8.23
2018-11-25T19:28:41.701Z,8.20
2018-11-25T19:31:09.471Z,8.23
2018-11-25T19:33:37.244Z,8.30
2018-11-25T19:36:05.377Z,8.23
2018-11-25T19:38:33.095Z,8.27
2018-11-25T19:41:00.827Z,8.24
2018-11-25T19:43:28.559Z,8.19
2018-11-25T19:45:56.292Z,8.23
2018-11-25T19:48:24.604Z,8.15
2018-11-25T19:50:52.323Z,8.18
2018-11-25T19:53:20.046Z,8.19
2018-11-25T19:55:47.784Z,8.19
2018-11-25T19:58:15.519Z,8.16
2018-11-25T20:00:43.800Z,8.17
2018-11-25T20:03:11.532Z,8.21
2018-11-25T20:05:40.064Z,8.09
2018-11-25T20:08:08.111Z,8.09
2018-11-25T20:10:35.883Z,8.15
2018-11-25T20:13:03.659Z,8.09
2018-11-25T20:15:31.398Z,8.07
2018-11-25T20:17:59.137Z,8.15
2018-11-25T20:20:27.214Z,8.19
2018-11-25T20:22:55.489Z,8.10
2018-11-25T20:25:23.244Z,8.09
2018-11-25T20:27:52.800Z,8.17
2018-11-25T20:30:21.868Z,8.16
2018-11-25T20:32:55.205Z,8.20
2018-11-25T20:35:22.969Z,8.21
2018-11-25T20:37:56.148Z,8.15
2018-11-25T20:40:23.935Z,8.14
2018-11-25T20:42:51.774Z,8.20
2018-11-25T20:45:25.780Z,8.20
2018-11-25T20:47:54.073Z,8.23
2018-11-25T20:50:21.871Z,8.24
2018-11-25T20:52:55.203Z,8.15
2018-11-25T20:55:22.931Z,8.12
2018-11-25T20:57:50.674Z,8.16
2018-11-25T21:00:20.653Z,8.09
2018-11-25T21:02:48.392Z,8.06
2018-11-25T21:05:16.235Z,8.06
2018-11-25T21:07:44.048Z,8.13
2018-11-25T21:10:15.095Z,8.08
2018-11-25T21:12:44.052Z,8.15
2018-11-25T21:15:11.800Z,8.07
2018-11-25T21:17:39.771Z,7.93
2018-11-25T21:20:24.551Z,8.02
2018-11-25T21:22:52.319Z,8.06
2018-11-25T21:25:21.283Z,8.08
2018-11-25T21:27:49.083Z,8.10
2018-11-25T21:30:20.710Z,8.06
2018-11-25T21:32:49.536Z,8.06
2018-11-25T21:35:17.264Z,8.02
2018-11-25T21:37:45.022Z,7.86
2018-11-25T21:40:15.752Z,7.88
2018-11-25T21:42:43.473Z,7.96
2018-11-25T21:45:13.214Z,8.01
2018-11-25T21:47:41.030Z,7.92
2018-11-25T21:50:10.158Z,7.91
2018-11-25T21:52:37.868Z,7.84
2018-11-25T21:55:07.276Z,7.84
2018-11-25T21:57:35.003Z,7.89
2018-11-25T22:00:02.776Z,7.93
2018-11-25T22:02:30.515Z,7.94
2018-11-25T22:04:58.238Z,8.03
2018-11-25T22:07:26.047Z,7.95
2018-11-25T22:09:53.789Z,7.97
2018-11-25T22:12:21.524Z,8.11
2018-11-25T22:14:49.223Z,8.09
2018-11-25T22:17:16.948Z,8.05
2018-11-25T22:19:44.660Z,8.13
2018-11-25T22:22:12.375Z,8.03
2018-11-25T22:24:40.088Z,8.03
2018-11-25T22:27:07.824Z,8.06
2018-11-25T22:29:35.542Z,7.94
2018-11-25T22:32:03.296Z,8.04
2018-11-25T22:34:31.019Z,8.00
2018-11-25T22:36:58.736Z,7.98
2018-11-25T22:39:26.451Z,8.03
2018-11-25T22:41:54.168Z,7.97
2018-11-25T22:44:21.900Z,7.99
2018-11-25T22:46:49.635Z,8.11
2018-11-25T22:49:17.367Z,8.15
2018-11-25T22:51:45.127Z,8.08
2018-11-25T22:54:12.882Z,7.90
2018-11-25T22:56:40.613Z,7.95
2018-11-25T22:59:08.339Z,7.98
2018-11-25T23:01:36.119Z,7.98
2018-11-25T23:05:15.540Z,8.06
2018-11-25T23:07:43.283Z,8.01
2018-11-25T23:10:11.029Z,8.04
2018-11-25T23:12:38.778Z,8.01
2018-11-25T23:15:06.634Z,8.07
2018-11-25T23:17:34.347Z,8.06
2018-11-25T23:20:02.072Z,7.98
2018-11-25T23:22:29.794Z,8.04
2018-11-25T23:24:57.518Z,8.01
2018-11-25T23:27:25.252Z,7.90
2018-11-25T23:29:52.976Z,7.88
2018-11-25T23:32:20.672Z,7.90
2018-11-25T23:34:48.383Z,7.96
2018-11-25T23:37:16.120Z,8.00
2018-11-25T23:39:43.880Z,8.03
2018-11-25T23:42:11.661Z,7.98
2018-11-25T23:44:39.415Z,7.97
2018-11-25T23:47:07.178Z,7.97
2018-11-25T23:49:34.911Z,7.91
2018-11-25T23:52:02.669Z,7.97
2018-11-25T23:54:30.399Z,8.05
2018-11-25T23:56:59.403Z,7.93
2018-11-25T23:59:25.980Z,8.04
